Skytop, Pennsylvania
Current Conditions -  °F | °C
As of 8:23 AM on Monday 22 Dec 2014 (Local Time) from KMPO Reporting Station
Haze Haze  
Wind Chill: 23°   Ceiling: 200
Heat Index: 28°   Visibility: 3mi
Dew Point: 26°   Wind: 5mph
Humidity: 92%   Direction: 110°ESE
Pressure: 30.23"   Gusts: NA
Location:  41.23°N, 75.24°W
Report Text: KMPO 221323Z AUTO 11004KT 3SM BR OVC002 M02/M03 A3023 RMK AO2 T10221033
Loading
Personal Weather Stations






























Interactive Weather Map New forecast layout! Learn more

10-Day Weather Forecast

Advertisements
Track Severe Weather on mobile